Time;durP1;ratioP1;P1;durP2;ratioP2;P2;SDS_P1;SDS_P2;PMS_P1;PMS_P2;Temp;Humidity;BMP_temperature;BMP_pressure;BME280_temperature;BME280_humidity;BME280_pressure;Samples;Min_cycle;Max_cycle;Signal;HPM_P1;HPM_P2
2022/04/20 00:02:23;;;;;;;4.93;3.47;;;;;;;1.37;100.00;94638.72;5050860;28;20055;-69
2022/04/20 00:04:53;;;;;;;6.43;4.63;;;;;;;1.33;100.00;94644.22;5034621;28;20594;-69
2022/04/20 00:07:20;;;;;;;5.45;4.18;;;;;;;1.36;100.00;94657.66;5038511;28;20110;-69
2022/04/20 00:09:48;;;;;;;6.10;4.00;;;;;;;1.30;100.00;94644.56;5056200;28;20200;-68
2022/04/20 00:12:14;;;;;;;6.68;4.47;;;;;;;1.36;100.00;94642.28;5051597;28;20054;-68
2022/04/20 00:14:41;;;;;;;6.75;4.53;;;;;;;1.17;100.00;94621.31;5048080;28;20045;-69
2022/04/20 00:17:08;;;;;;;7.53;4.53;;;;;;;1.39;100.00;94647.03;5044315;28;20366;-69
2022/04/20 00:19:35;;;;;;;7.00;3.55;;;;;;;1.35;100.00;94651.72;5056233;28;20045;-68
2022/04/20 00:22:04;;;;;;;6.90;3.70;;;;;;;1.28;100.00;94646.53;5048217;28;20108;-69
2022/04/20 00:24:30;;;;;;;6.32;4.22;;;;;;;1.26;100.00;94648.47;5047338;28;20056;-68
2022/04/20 00:26:57;;;;;;;6.40;3.92;;;;;;;1.23;100.00;94653.94;5051082;28;20045;-69
2022/04/20 00:29:24;;;;;;;8.82;4.03;;;;;;;1.16;100.00;94663.31;5055162;28;20151;-69
2022/04/20 00:31:51;;;;;;;7.13;4.50;;;;;;;1.14;100.00;94660.16;5057338;28;20080;-69
2022/04/20 00:34:18;;;;;;;23.58;5.25;;;;;;;1.16;100.00;94665.09;5058728;28;20049;-69
2022/04/20 00:36:45;;;;;;;8.10;5.22;;;;;;;1.15;100.00;94666.84;5056512;28;20052;-69
2022/04/20 00:39:12;;;;;;;8.52;5.10;;;;;;;1.11;100.00;94665.63;5045069;28;20053;-69
2022/04/20 00:41:39;;;;;;;7.88;4.78;;;;;;;0.95;100.00;94657.13;5053111;28;20053;-69
2022/04/20 00:44:06;;;;;;;7.97;5.13;;;;;;;0.99;100.00;94664.44;5039066;28;20049;-69
2022/04/20 00:46:34;;;;;;;11.52;4.30;;;;;;;0.81;100.00;94645.09;5043670;28;20074;-69
2022/04/20 00:49:02;;;;;;;8.98;5.60;;;;;;;0.85;100.00;94661.72;5058240;28;20457;-69
2022/04/20 00:51:30;;;;;;;6.93;4.72;;;;;;;0.73;100.00;94650.28;5039075;28;20048;-69
2022/04/20 00:54:00;;;;;;;9.88;6.30;;;;;;;0.68;100.00;94644.88;5036250;28;20129;-69
2022/04/20 00:56:27;;;;;;;10.52;5.75;;;;;;;0.66;100.00;94657.84;5052879;28;20045;-69
2022/04/20 00:58:57;;;;;;;11.50;5.72;;;;;;;0.59;100.00;94646.69;5062454;28;20072;-69
2022/04/20 01:01:26;;;;;;;8.95;5.35;;;;;;;0.55;100.00;94646.25;5054623;28;20057;-69
2022/04/20 01:03:55;;;;;;;11.02;5.38;;;;;;;0.52;100.00;94638.13;5045659;28;20584;-67
2022/04/20 01:06:22;;;;;;;9.07;5.82;;;;;;;0.56;100.00;94647.06;5047066;28;20045;-70
2022/04/20 01:09:22;;;;;;;8.77;5.13;;;;;;;0.47;100.00;94643.78;5028992;28;20186;-68
2022/04/20 01:12:17;;;;;;;11.95;6.32;;;;;;;0.41;100.00;94644.44;5050837;28;20052;-68
2022/04/20 01:15:03;;;;;;;8.93;5.35;;;;;;;0.31;100.00;94629.31;5035682;28;20615;-68
2022/04/20 01:18:15;;;;;;;9.07;5.30;;;;;;;0.34;100.00;94635.84;5044361;28;20442;-68
2022/04/20 01:21:07;;;;;;;10.52;5.72;;;;;;;0.14;100.00;94620.94;5024339;28;20486;-68
2022/04/20 01:24:02;;;;;;;7.22;4.65;;;;;;;0.13;100.00;94631.38;5034165;28;20133;-67
2022/04/20 01:26:46;;;;;;;10.82;5.80;;;;;;;0.11;100.00;94634.13;5056894;28;20594;-67
2022/04/20 01:29:46;;;;;;;11.68;6.22;;;;;;;0.08;100.00;94638.78;5023226;28;20109;-68
2022/04/20 01:32:36;;;;;;;10.52;5.88;;;;;;;0.05;100.00;94634.78;5047466;28;20436;-68
2022/04/20 01:35:47;;;;;;;10.13;6.07;;;;;;;0.09;100.00;94640.34;5055368;28;20200;-68
2022/04/20 01:38:14;;;;;;;9.43;6.03;;;;;;;0.04;100.00;94642.63;5045028;28;20056;-68
2022/04/20 01:40:59;;;;;;;11.63;5.97;;;;;;;0.02;100.00;94650.50;5045943;28;20045;-69
2022/04/20 01:43:26;;;;;;;8.93;5.45;;;;;;;0.01;100.00;94648.91;5043560;28;20049;-68
2022/04/20 01:46:17;;;;;;;13.48;7.93;;;;;;;-0.01;100.00;94645.72;5055743;28;20542;-68
2022/04/20 01:49:03;;;;;;;8.65;5.00;;;;;;;0.06;100.00;94646.63;5055200;28;20060;-69
2022/04/20 01:51:51;;;;;;;9.25;5.82;;;;;;;0.09;100.00;94650.59;5059642;28;20036;-68
2022/04/20 01:54:35;;;;;;;9.00;5.20;;;;;;;0.03;100.00;94641.84;5060793;28;20052;-67
2022/04/20 01:57:40;;;;;;;10.93;5.95;;;;;;;0.01;100.00;94648.91;4945532;28;20039;-67
2022/04/20 02:04:36;;;;;;;9.27;5.43;;;;;;;0.00;100.00;94652.44;5058086;28;20123;-68
2022/04/20 02:07:41;;;;;;;10.95;6.28;;;;;;;-0.01;100.00;94666.19;5044196;28;20205;-67
2022/04/20 02:10:26;;;;;;;15.00;6.20;;;;;;;-0.02;100.00;94664.59;5048687;28;20087;-67
2022/04/20 02:13:12;;;;;;;10.02;6.05;;;;;;;-0.07;100.00;94661.78;5024750;28;20052;-67
2022/04/20 02:23:23;;;;;;;11.73;5.68;;;;;;;-0.07;100.00;94666.88;5066208;28;20096;-68
2022/04/20 02:29:13;;;;;;;11.00;5.90;;;;;;;-0.03;100.00;94650.22;5056322;28;20539;-68
2022/04/20 02:35:44;;;;;;;10.55;6.43;;;;;;;0.02;100.00;94636.88;5069159;28;20052;-68
2022/04/20 02:38:30;;;;;;;;;;;;;;;0.04;100.00;94643.44;5052879;28;20055;-68
2022/04/20 02:41:00;;;;;;;13.57;7.03;;;;;;;-0.06;100.00;94647.97;5040877;28;19991;-67
2022/04/20 02:43:27;;;;;;;14.13;7.80;;;;;;;-0.07;100.00;94646.41;5051773;28;20044;-67
2022/04/20 02:45:57;;;;;;;15.32;8.35;;;;;;;-0.07;100.00;94652.31;5053015;28;20041;-68
2022/04/20 02:48:24;;;;;;;11.95;7.15;;;;;;;-0.26;100.00;94616.91;5057967;28;20155;-67
2022/04/20 02:50:51;;;;;;;13.27;7.78;;;;;;;-0.07;100.00;94646.41;5044884;28;20625;-68
2022/04/20 02:53:19;;;;;;;12.65;7.30;;;;;;;-0.10;100.00;94647.53;5023695;28;20127;-68
2022/04/20 02:55:46;;;;;;;12.35;6.90;;;;;;;0.00;100.00;94655.00;5050405;28;20044;-67
2022/04/20 02:58:14;;;;;;;12.10;7.53;;;;;;;0.03;100.00;94657.19;5038155;28;20062;-68
2022/04/20 03:00:48;;;;;;;;;;;;;;;0.00;100.00;94657.56;5049264;28;20425;-67
2022/04/20 03:03:23;;;;;;;13.43;6.65;;;;;;;-0.05;100.00;94649.59;5055251;28;19944;-67
2022/04/20 03:05:53;;;;;;;10.70;6.97;;;;;;;-0.05;100.00;94659.81;5049978;28;20053;-67
2022/04/20 03:08:23;;;;;;;13.63;7.82;;;;;;;-0.07;100.00;94656.66;5050608;28;20049;-67
2022/04/20 03:10:52;;;;;;;12.75;7.15;;;;;;;-0.04;100.00;94656.28;5057110;28;20044;-66
2022/04/20 03:13:20;;;;;;;11.43;7.07;;;;;;;-0.05;100.00;94654.72;5027098;28;20102;-67
2022/04/20 03:15:47;;;;;;;11.75;6.55;;;;;;;-0.01;100.00;94661.06;5055893;28;20041;-67
2022/04/20 03:18:15;;;;;;;12.32;7.07;;;;;;;0.01;100.00;94664.25;5049085;28;20048;-66
2022/04/20 03:20:42;;;;;;;14.05;7.20;;;;;;;0.02;100.00;94660.75;5054351;28;20048;-67
2022/04/20 03:23:12;;;;;;;11.90;7.47;;;;;;;0.10;100.00;94662.44;5052020;28;20053;-67
2022/04/20 03:25:41;;;;;;;14.27;8.05;;;;;;;0.15;100.00;94666.09;5038671;28;20137;-67
2022/04/20 03:28:46;;;;;;;10.45;6.05;;;;;;;0.14;100.00;94664.47;5047059;28;20072;-66
2022/04/20 03:31:13;;;;;;;19.77;6.47;;;;;;;0.15;100.00;94666.09;5028990;28;20053;-67
2022/04/20 03:33:41;;;;;;;9.65;5.90;;;;;;;0.17;100.00;94664.16;5059602;28;20040;-67
2022/04/20 03:36:08;;;;;;;12.15;6.63;;;;;;;0.17;100.00;94669.28;5049687;28;20539;-67
2022/04/20 03:38:35;;;;;;;11.52;6.93;;;;;;;0.23;100.00;94664.44;5058812;28;20068;-67
2022/04/20 03:41:05;;;;;;;14.07;7.25;;;;;;;0.25;100.00;94654.81;5060767;28;20103;-67
2022/04/20 03:43:32;;;;;;;23.52;7.20;;;;;;;0.29;100.00;94646.63;5041507;28;20049;-66
2022/04/20 03:45:59;;;;;;;14.10;7.72;;;;;;;0.33;100.00;94647.88;5071623;28;20045;-67
2022/04/20 03:48:26;;;;;;;11.27;6.65;;;;;;;0.37;100.00;94643.22;5057410;28;20949;-66
2022/04/20 03:50:55;;;;;;;13.07;6.78;;;;;;;0.35;100.00;94635.69;5052984;28;20064;-66
2022/04/20 03:53:22;;;;;;;12.15;6.00;;;;;;;0.47;100.00;94646.34;5056828;28;20048;-67
2022/04/20 03:55:53;;;;;;;12.50;6.28;;;;;;;0.49;100.00;94646.97;5036320;28;20139;-67
2022/04/20 03:58:19;;;;;;;8.38;5.38;;;;;;;0.51;100.00;94645.00;5047904;28;20064;-66
2022/04/20 04:00:46;;;;;;;10.48;5.55;;;;;;;0.61;100.00;94633.72;5053353;28;20044;-67
2022/04/20 04:03:16;;;;;;;14.65;6.50;;;;;;;0.64;100.00;94638.50;5056791;28;20044;-67
2022/04/20 04:05:43;;;;;;;11.10;6.35;;;;;;;0.67;100.00;94640.72;5031435;28;20130;-66
2022/04/20 04:08:19;;;;;;;13.13;6.93;;;;;;;0.70;100.00;94635.22;5057894;28;20067;-67
2022/04/20 04:10:46;;;;;;;11.25;5.53;;;;;;;0.78;100.00;94630.03;5039515;28;20505;-66
2022/04/20 04:13:15;;;;;;;9.57;5.18;;;;;;;0.84;100.00;94631.91;5061472;28;20052;-66
2022/04/20 04:15:47;;;;;;;11.35;5.22;;;;;;;0.92;100.00;94631.81;5044971;28;20078;-67
2022/04/20 04:18:14;;;;;;;11.30;5.40;;;;;;;0.99;100.00;94625.97;5030044;28;20147;-67
2022/04/20 04:20:45;;;;;;;11.77;5.68;;;;;;;1.10;100.00;94633.25;5054928;28;20092;-67
2022/04/20 04:23:17;;;;;;;11.25;6.85;;;;;;;1.17;100.00;94629.03;5044927;28;20067;-67
2022/04/20 04:25:55;;;;;;;10.38;6.63;;;;;;;1.13;100.00;94607.22;5039690;28;20060;-67
2022/04/20 04:28:33;;;;;;;12.20;6.85;;;;;;;1.39;100.00;94631.63;5034167;28;20520;-67
2022/04/20 04:31:00;;;;;;;12.30;6.53;;;;;;;1.48;100.00;94630.59;5045387;28;20045;-67
2022/04/20 04:33:28;;;;;;;14.32;6.93;;;;;;;1.53;100.00;94628.25;5032573;28;20072;-67
2022/04/20 04:35:58;;;;;;;12.98;7.75;;;;;;;1.60;100.00;94618.84;5042050;28;20543;-67
2022/04/20 04:38:26;;;;;;;10.75;6.28;;;;;;;1.62;100.00;94619.50;5038527;28;20471;-67
2022/04/20 04:40:53;;;;;;;12.52;7.75;;;;;;;1.69;100.00;94620.38;5026307;28;20575;-68
2022/04/20 04:43:26;;;;;;;11.60;7.00;;;;;;;1.80;100.00;94618.28;5036183;28;20049;-69
2022/04/20 04:49:02;;;;;;;14.63;6.15;;;;;;;1.95;100.00;94608.78;5041636;28;20095;-68
2022/04/20 04:51:30;;;;;;;8.57;6.10;;;;;;;2.04;100.00;94599.97;5038032;28;20081;-68
2022/04/20 04:53:57;;;;;;;11.02;6.82;;;;;;;2.13;100.00;94608.34;5026308;28;20037;-68
2022/04/20 04:56:32;;;;;;;14.00;7.32;;;;;;;2.26;100.00;94597.41;5053191;28;20056;-69
2022/04/20 04:59:01;;;;;;;11.70;7.47;;;;;;;2.35;100.00;94601.41;5038729;28;20064;-68
2022/04/20 05:01:29;;;;;;;11.55;7.43;;;;;;;2.34;100.00;94599.84;5054303;28;20059;-68
2022/04/20 05:04:05;;;;;;;9.90;6.28;;;;;;;2.52;100.00;94617.38;5055636;28;20575;-69
2022/04/20 05:06:33;;;;;;;11.73;8.40;;;;;;;2.60;100.00;94619.03;5024165;28;20060;-67
2022/04/20 05:09:06;;;;;;;16.90;9.35;;;;;;;2.66;100.00;94625.97;5047786;28;20149;-67
2022/04/20 05:11:37;;;;;;;10.55;7.55;;;;;;;2.74;100.00;94620.72;5054854;28;20057;-67
2022/04/20 05:14:06;;;;;;;13.38;7.10;;;;;;;2.78;100.00;94621.91;5047296;28;20127;-67
2022/04/20 05:16:36;;;;;;;11.45;7.57;;;;;;;2.90;100.00;94618.81;5008815;28;20053;-67
2022/04/20 05:19:05;;;;;;;12.75;7.50;;;;;;;2.91;100.00;94626.34;5029683;28;20045;-67
2022/04/20 05:21:32;;;;;;;11.25;7.18;;;;;;;3.00;100.00;94625.22;5041800;28;20045;-67
2022/04/20 05:24:00;;;;;;;8.82;5.88;;;;;;;3.05;100.00;94632.38;5046304;28;20136;-67
2022/04/20 05:26:31;;;;;;;9.45;6.22;;;;;;;3.12;100.00;94635.81;5021653;28;20072;-66
2022/04/20 05:28:58;;;;;;;14.13;8.32;;;;;;;3.17;100.00;94636.03;5027980;28;20107;-66
2022/04/20 05:31:25;;;;;;;23.52;12.82;;;;;;;3.20;100.00;94635.63;5034290;28;20052;-66
2022/04/20 05:33:52;;;;;;;13.55;8.65;;;;;;;3.17;100.00;94641.19;5028390;28;20048;-67
2022/04/20 05:36:20;;;;;;;16.25;10.15;;;;;;;3.27;100.00;94655.47;5033834;28;20110;-67
2022/04/20 05:41:41;;;;;;;19.17;9.68;;;;;;;3.37;100.00;94650.78;5026464;28;20049;-67
2022/04/20 05:44:24;;;;;;;13.05;8.48;;;;;;;3.45;100.00;94655.78;5036258;28;20135;-66
2022/04/20 05:46:51;;;;;;;14.07;6.78;;;;;;;3.43;100.00;94650.03;5037085;28;20044;-66
2022/04/20 05:49:19;;;;;;;14.13;9.93;;;;;;;3.51;100.00;94652.44;5033755;28;20557;-67
2022/04/20 05:51:47;;;;;;;18.77;9.93;;;;;;;3.58;100.00;94653.28;5039526;28;20151;-67
2022/04/20 05:54:14;;;;;;;26.30;13.30;;;;;;;3.62;100.00;94657.06;5028905;28;20053;-67
2022/04/20 05:56:42;;;;;;;15.48;9.48;;;;;;;3.68;100.00;94662.44;5036839;28;20041;-69
2022/04/20 05:59:10;;;;;;;13.75;7.57;;;;;;;3.73;100.00;94666.00;5037422;28;20137;-68
2022/04/20 06:01:41;;;;;;;12.90;7.47;;;;;;;3.83;100.00;94670.78;5033023;28;20140;-68
2022/04/20 06:04:14;;;;;;;10.47;6.10;;;;;;;3.90;100.00;94671.63;5036874;28;20198;-68
2022/04/20 06:07:10;;;;;;;10.13;5.13;;;;;;;3.96;100.00;94678.59;5031957;28;20068;-69
2022/04/20 06:09:42;;;;;;;12.45;6.68;;;;;;;3.95;100.00;94682.13;5026222;28;20083;-68
2022/04/20 06:12:23;;;;;;;13.30;7.68;;;;;;;4.10;100.00;94676.03;5031537;28;20052;-68
2022/04/20 06:14:57;;;;;;;8.75;5.32;;;;;;;4.14;100.00;94687.53;5040714;28;20056;-68
2022/04/20 06:17:36;;;;;;;18.45;10.73;;;;;;;4.19;100.00;94688.53;5041888;28;20048;-68
2022/04/20 06:20:05;;;;;;;12.73;7.95;;;;;;;4.21;100.00;94672.88;5041618;28;20060;-67
2022/04/20 06:22:52;;;;;;;13.35;8.45;;;;;;;4.28;100.00;94673.69;5037959;28;20128;-67
2022/04/20 06:25:28;;;;;;;12.63;7.68;;;;;;;4.20;100.00;94671.31;5012914;28;20585;-68
2022/04/20 06:28:09;;;;;;;28.80;15.98;;;;;;;4.37;100.00;94671.75;5039136;28;20051;-68
2022/04/20 06:30:53;;;;;;;22.02;13.00;;;;;;;4.36;100.00;94665.78;5023158;28;20052;-69
2022/04/20 06:33:40;;;;;;;39.28;19.27;;;;;;;4.43;100.00;94670.97;5020528;28;20068;-68
2022/04/20 06:36:12;;;;;;;26.92;13.70;;;;;;;4.47;100.00;94671.38;5051023;28;20455;-69
2022/04/20 06:39:06;;;;;;;100.53;42.85;;;;;;;4.43;100.00;94672.72;5020490;28;20504;-68
2022/04/20 06:41:51;;;;;;;61.95;31.25;;;;;;;4.43;100.00;94659.84;5037781;28;20052;-69
2022/04/20 06:44:37;;;;;;;73.75;37.30;;;;;;;4.50;100.00;94652.91;5039890;28;20487;-69
2022/04/20 06:47:22;;;;;;;113.10;50.63;;;;;;;4.58;100.00;94657.88;5034291;28;20766;-68
2022/04/20 06:50:16;;;;;;;34.25;20.10;;;;;;;4.63;100.00;94650.34;5049221;28;20543;-68
2022/04/20 06:58:35;;;;;;;29.45;18.17;;;;;;;4.68;100.00;94666.03;5046745;28;20049;-68
2022/04/20 07:01:09;;;;;;;26.92;18.60;;;;;;;4.69;100.00;94670.19;5043479;28;20045;-68
2022/04/20 07:03:39;;;;;;;22.77;13.25;;;;;;;4.71;100.00;94663.03;5061677;28;20061;-68
2022/04/20 07:06:24;;;;;;;16.13;10.20;;;;;;;4.69;100.00;94665.03;5040427;28;20363;-69
2022/04/20 07:09:06;;;;;;;14.63;9.55;;;;;;;4.67;100.00;94667.00;5046580;28;20198;-69
2022/04/20 07:11:42;;;;;;;14.95;9.57;;;;;;;4.68;100.00;94663.47;5050769;28;20750;-69
2022/04/20 07:14:09;;;;;;;19.05;11.43;;;;;;;4.62;100.00;94659.06;5024165;28;20049;-69
2022/04/20 07:16:36;;;;;;;23.80;15.32;;;;;;;4.63;100.00;94649.53;5030570;28;20070;-69
2022/04/20 07:19:11;;;;;;;15.90;10.38;;;;;;;4.50;100.00;94651.13;5034795;28;20033;-68
2022/04/20 07:22:01;;;;;;;15.20;9.25;;;;;;;4.31;100.00;94652.69;5031655;28;20041;-68
2022/04/20 07:24:40;;;;;;;15.13;9.38;;;;;;;4.24;100.00;94657.03;5040411;28;20710;-68
2022/04/20 07:27:25;;;;;;;18.05;10.48;;;;;;;4.35;100.00;94679.66;5039947;28;20047;-68
2022/04/20 07:30:11;;;;;;;16.90;10.20;;;;;;;4.34;100.00;94683.25;5041007;28;20047;-68
2022/04/20 07:32:53;;;;;;;18.83;10.38;;;;;;;4.38;100.00;94679.28;5035401;28;20048;-68
2022/04/20 07:35:44;;;;;;;17.73;10.00;;;;;;;4.38;100.00;94679.28;5036903;28;20056;-69
2022/04/20 07:38:42;;;;;;;20.33;11.05;;;;;;;4.43;100.00;94678.72;5053449;28;20045;-68
2022/04/20 07:41:27;;;;;;;17.67;8.80;;;;;;;4.42;100.00;94668.59;5057838;28;20060;-68
2022/04/20 07:44:22;;;;;;;16.75;8.63;;;;;;;4.37;100.00;94676.91;5023877;28;20497;-70
2022/04/20 07:46:54;;;;;;;16.10;8.98;;;;;;;4.36;100.00;94665.00;5031041;28;20140;-69
2022/04/20 07:52:58;;;;;;;13.40;8.82;;;;;;;4.22;100.00;94666.75;5028503;28;20044;-68
2022/04/20 07:55:46;;;;;;;24.77;12.27;;;;;;;4.08;100.00;94652.25;5040476;28;20041;-69
2022/04/20 07:58:33;;;;;;;19.38;11.20;;;;;;;4.19;100.00;94667.13;5027408;28;20151;-68
2022/04/20 08:01:20;;;;;;;15.25;8.55;;;;;;;4.13;100.00;94655.03;5041819;28;20053;-68
2022/04/20 08:03:53;;;;;;;16.58;9.70;;;;;;;4.11;100.00;94647.50;5038458;28;20604;-68
2022/04/20 08:06:46;;;;;;;10.05;6.95;;;;;;;4.18;100.00;94657.84;5041052;28;20132;-68
2022/04/20 08:09:13;;;;;;;14.82;8.15;;;;;;;4.15;100.00;94668.53;5033085;28;20128;-68
2022/04/20 08:11:40;;;;;;;15.52;7.72;;;;;;;4.13;100.00;94660.19;5039212;28;20041;-67
2022/04/20 08:14:13;;;;;;;16.92;8.02;;;;;;;4.00;100.00;94646.28;5036797;28;20084;-68
2022/04/20 08:16:46;;;;;;;14.25;6.47;;;;;;;4.10;100.00;94650.25;5018883;28;20049;-68
2022/04/20 08:19:28;;;;;;;12.27;7.60;;;;;;;4.11;100.00;94647.50;5038790;28;20440;-68
2022/04/20 08:22:24;;;;;;;14.10;8.68;;;;;;;4.10;100.00;94642.53;5026244;28;20051;-68
2022/04/20 08:24:53;;;;;;;13.52;8.10;;;;;;;4.18;100.00;94642.38;5038692;28;20052;-68
2022/04/20 08:27:20;;;;;;;15.65;8.38;;;;;;;4.33;100.00;94644.75;5044258;28;20535;-67
2022/04/20 08:29:47;;;;;;;13.98;8.75;;;;;;;4.35;100.00;94638.41;5036894;28;20582;-68
2022/04/20 08:32:18;;;;;;;19.88;8.80;;;;;;;4.45;100.00;94637.22;5025927;28;20156;-69
2022/04/20 08:34:48;;;;;;;17.42;8.23;;;;;;;4.56;100.00;94624.53;5027647;28;20063;-68
2022/04/20 08:37:31;;;;;;;11.75;7.18;;;;;;;4.79;100.00;94624.16;5025979;28;20064;-69
2022/04/20 08:39:58;;;;;;;13.05;6.82;;;;;;;4.74;100.00;94616.22;5036012;28;20695;-68
2022/04/20 08:42:29;;;;;;;11.95;7.05;;;;;;;4.88;100.00;94621.34;5031941;28;20046;-68
2022/04/20 08:45:01;;;;;;;12.32;6.90;;;;;;;4.92;100.00;94613.03;5040442;28;20200;-68
2022/04/20 08:47:38;;;;;;;15.80;6.65;;;;;;;5.19;100.00;94625.09;5039956;28;20055;-69
2022/04/20 08:50:06;;;;;;;11.77;7.70;;;;;;;5.15;100.00;94622.91;5039677;28;20046;-69
2022/04/20 08:52:39;;;;;;;12.45;7.93;;;;;;;5.10;100.00;94620.13;5037656;28;20056;-68
2022/04/20 08:55:11;;;;;;;12.45;7.70;;;;;;;5.16;100.00;94613.38;5037851;28;20928;-69
2022/04/20 08:57:39;;;;;;;12.20;7.45;;;;;;;5.24;100.00;94602.03;5038160;28;20055;-69
2022/04/20 09:00:09;;;;;;;12.05;7.55;;;;;;;5.34;100.00;94594.66;5038580;28;20029;-68
2022/04/20 09:02:36;;;;;;;12.20;7.40;;;;;;;5.38;100.00;94574.38;5036292;28;20051;-68
2022/04/20 09:05:05;;;;;;;14.57;8.10;;;;;;;5.42;100.00;94591.84;5044932;28;20040;-68
2022/04/20 09:07:32;;;;;;;11.00;7.40;;;;;;;5.35;100.00;94581.53;5041355;28;20037;-67
2022/04/20 09:10:01;;;;;;;11.75;8.23;;;;;;;5.50;100.00;94594.19;5043361;28;20032;-68
2022/04/20 09:12:28;;;;;;;9.43;6.50;;;;;;;5.46;100.00;94587.88;5006700;28;20040;-67
2022/04/20 09:14:56;;;;;;;12.55;7.07;;;;;;;5.51;100.00;94589.81;5043544;28;20042;-67
2022/04/20 09:17:24;;;;;;;14.23;8.45;;;;;;;5.63;100.00;94582.22;5047170;28;20743;-68
2022/04/20 09:19:54;;;;;;;11.55;6.82;;;;;;;5.66;100.00;94571.50;5050436;28;20256;-68
2022/04/20 09:22:23;;;;;;;19.05;9.80;;;;;;;5.84;100.00;94571.59;5045756;28;20069;-68
2022/04/20 09:25:07;;;;;;;11.95;7.15;;;;;;;5.91;100.00;94579.31;5038447;28;20520;-69
2022/04/20 09:27:36;;;;;;;13.15;7.68;;;;;;;5.97;100.00;94572.53;5047300;28;20048;-69
2022/04/20 09:30:08;;;;;;;10.73;6.65;;;;;;;5.99;100.00;94562.78;5053884;28;20033;-68
2022/04/20 09:32:37;;;;;;;9.65;6.10;;;;;;;6.05;100.00;94559.34;5057145;28;20045;-68
2022/04/20 09:35:13;;;;;;;11.70;6.68;;;;;;;5.96;100.00;94550.25;5044069;28;20056;-69
2022/04/20 09:37:43;;;;;;;12.57;6.78;;;;;;;6.03;100.00;94545.84;5054620;28;20048;-69
2022/04/20 09:40:37;;;;;;;11.45;6.88;;;;;;;6.25;100.00;94544.50;5018020;28;20043;-69
2022/04/20 09:43:08;;;;;;;13.02;7.85;;;;;;;6.40;100.00;94551.16;5052131;28;20055;-69
2022/04/20 09:45:39;;;;;;;12.80;7.75;;;;;;;6.47;100.00;94551.91;5048416;28;20041;-70
2022/04/20 09:51:19;;;;;;;9.82;6.43;;;;;;;6.37;100.00;94539.44;5059888;28;20037;-68
2022/04/20 09:53:50;;;;;;;12.55;7.13;;;;;;;6.46;100.00;94545.13;5035558;28;20052;-68
2022/04/20 09:56:19;;;;;;;12.52;7.72;;;;;;;6.48;100.00;94537.94;5056617;28;20601;-68
2022/04/20 09:58:46;;;;;;;11.95;7.63;;;;;;;6.35;100.00;94527.72;5062305;28;20046;-68
2022/04/20 10:01:35;;;;;;;10.65;7.13;;;;;;;6.39;100.00;94523.69;5047521;28;20046;-67
2022/04/20 10:04:05;;;;;;;12.95;7.55;;;;;;;6.36;100.00;94530.09;5039240;28;20041;-67
2022/04/20 10:06:33;;;;;;;12.13;7.75;;;;;;;6.24;100.00;94526.63;5068268;28;20044;-68
2022/04/20 10:09:00;;;;;;;13.32;7.95;;;;;;;6.16;100.00;94519.91;5073335;28;20044;-67
2022/04/20 10:11:27;;;;;;;11.95;6.60;;;;;;;6.12;100.00;94523.91;5065189;28;20515;-68
2022/04/20 10:16:52;;;;;;;10.52;7.25;;;;;;;6.11;100.00;94514.56;5060058;28;20045;-66
2022/04/20 10:19:26;;;;;;;10.13;6.45;;;;;;;6.06;100.00;94520.38;5062493;28;20520;-68
2022/04/20 10:21:55;;;;;;;13.75;6.88;;;;;;;6.20;100.00;94521.06;5060714;28;20091;-68
2022/04/20 10:24:42;;;;;;;10.52;6.35;;;;;;;6.30;100.00;94518.81;5070266;28;20124;-69
2022/04/20 10:27:15;;;;;;;10.00;6.75;;;;;;;6.35;100.00;94517.38;5050959;28;20041;-68
2022/04/20 10:30:15;;;;;;;12.02;6.25;;;;;;;6.39;100.00;94508.19;5058084;28;20057;-68
2022/04/20 10:32:51;;;;;;;10.60;7.50;;;;;;;6.48;100.00;94501.72;5054864;28;20044;-68
2022/04/20 10:35:23;;;;;;;13.45;6.43;;;;;;;6.54;100.00;94490.53;5046678;28;20056;-68
2022/04/20 10:38:12;;;;;;;12.70;6.18;;;;;;;6.67;100.00;94480.06;5059275;28;20059;-68
2022/04/20 10:41:13;;;;;;;10.35;6.65;;;;;;;6.73;100.00;94490.56;5054580;28;20059;-67
2022/04/20 10:43:42;;;;;;;10.88;6.80;;;;;;;6.77;100.00;94489.13;5038455;28;20041;-68
2022/04/20 10:46:15;;;;;;;8.75;6.30;;;;;;;6.60;100.00;94494.84;5056667;28;20099;-68
2022/04/20 10:48:43;;;;;;;12.50;7.10;;;;;;;6.69;100.00;94488.38;5062318;28;20046;-68
2022/04/20 10:51:14;;;;;;;8.68;5.68;;;;;;;6.78;100.00;94480.34;5060116;28;20410;-68
2022/04/20 10:53:48;;;;;;;9.23;5.88;;;;;;;6.83;100.00;94472.72;5064747;28;20048;-68
2022/04/20 10:56:19;;;;;;;8.23;5.78;;;;;;;6.97;100.00;94458.63;5045235;28;20043;-69
2022/04/20 10:59:04;;;;;;;9.05;5.97;;;;;;;7.11;100.00;94463.66;5063985;28;20136;-69
2022/04/20 11:01:31;;;;;;;;;;;;;;;7.33;100.00;94467.38;5055601;28;20056;-68
2022/04/20 11:03:58;;;;;;;9.48;6.38;;;;;;;7.27;100.00;94457.88;5057596;28;19921;-68
2022/04/20 11:06:27;;;;;;;7.57;4.97;;;;;;;7.26;100.00;94443.34;5064752;28;20045;-68
2022/04/20 11:08:59;;;;;;;9.70;5.95;;;;;;;7.12;100.00;94466.03;5039632;28;20047;-70
2022/04/20 11:21:09;;;;;;;11.68;7.15;;;;;;;6.49;100.00;94469.69;5051673;28;20052;-68
2022/04/20 11:24:05;;;;;;;24.25;16.48;;;;;;;6.38;100.00;94475.56;5053509;28;20068;-68
2022/04/20 11:26:41;;;;;;;13.57;10.07;;;;;;;6.38;100.00;94465.22;5039214;28;20055;-68
2022/04/20 11:29:22;;;;;;;8.85;6.82;;;;;;;6.38;100.00;94465.22;5054150;28;20390;-67
2022/04/20 11:32:00;;;;;;;11.25;6.57;;;;;;;6.35;100.00;94466.44;5057434;28;20071;-68
2022/04/20 11:34:34;;;;;;;38.53;18.23;;;;;;;6.34;100.00;94464.03;5043366;28;20633;-67
2022/04/20 11:37:03;;;;;;;14.05;9.40;;;;;;;6.26;100.00;94458.16;5040391;28;20064;-67
2022/04/20 11:39:31;;;;;;;10.02;6.43;;;;;;;6.16;100.00;94457.84;5024725;28;20048;-67
2022/04/20 11:42:03;;;;;;;13.27;8.63;;;;;;;6.08;100.00;94458.88;5009732;28;20053;-67
2022/04/20 11:44:34;;;;;;;11.43;8.18;;;;;;;6.18;100.00;94450.66;5031566;28;20041;-68
2022/04/20 11:47:08;;;;;;;11.20;7.07;;;;;;;6.17;100.00;94448.28;5012557;28;20073;-67
2022/04/20 11:49:46;;;;;;;10.93;7.15;;;;;;;6.14;100.00;94452.09;5034690;28;20050;-68
2022/04/20 11:52:18;;;;;;;9.57;6.97;;;;;;;6.08;100.00;94455.53;5024163;28;20037;-67
2022/04/20 11:54:48;;;;;;;10.63;6.72;;;;;;;5.96;100.00;94418.44;5015982;28;20042;-68
2022/04/20 11:57:23;;;;;;;10.02;7.18;;;;;;;6.13;100.00;94448.72;5027307;28;20613;-67
2022/04/20 11:59:51;;;;;;;10.40;6.75;;;;;;;6.07;100.00;94453.97;5027147;28;20564;-68
2022/04/20 12:02:19;;;;;;;11.43;7.38;;;;;;;6.09;100.00;94457.13;5020532;28;20053;-68
2022/04/20 12:05:10;;;;;;;8.35;6.25;;;;;;;6.01;100.00;94454.78;5011970;28;20048;-68
2022/04/20 12:07:38;;;;;;;10.10;6.25;;;;;;;5.90;100.00;94453.66;5019442;28;20068;-68
2022/04/20 12:10:05;;;;;;;8.52;6.18;;;;;;;5.87;100.00;94457.47;5028342;28;20053;-68
2022/04/20 12:12:33;;;;;;;12.75;6.78;;;;;;;5.79;100.00;94449.16;5020821;28;20046;-68
2022/04/20 12:15:08;;;;;;;10.18;6.95;;;;;;;5.84;100.00;94457.09;5021162;28;20056;-68
2022/04/20 12:17:36;;;;;;;9.27;6.43;;;;;;;5.70;100.00;94458.97;5017899;28;20038;-68
2022/04/20 12:20:04;;;;;;;15.85;8.27;;;;;;;5.55;100.00;94460.03;5023273;28;21149;-69
2022/04/20 12:22:33;;;;;;;13.90;9.60;;;;;;;5.47;100.00;94455.13;5004716;28;20041;-68
2022/04/20 12:25:14;;;;;;;12.70;9.55;;;;;;;5.49;100.00;94460.06;5002065;28;20050;-69
2022/04/20 12:27:52;;;;;;;;;;;;;;;5.48;100.00;94459.28;5018464;28;20057;-69
2022/04/20 12:30:49;;;;;;;14.13;9.80;;;;;;;5.43;100.00;94469.44;5024116;28;20383;-69
2022/04/20 12:33:25;;;;;;;11.50;8.40;;;;;;;5.36;100.00;94479.81;5009167;28;20066;-69
2022/04/20 12:36:03;;;;;;;32.53;14.77;;;;;;;5.42;100.00;94473.06;5026828;28;20087;-69
2022/04/20 12:38:59;;;;;;;12.10;6.93;;;;;;;5.30;100.00;94465.16;5027970;28;20459;-69
2022/04/20 12:41:46;;;;;;;18.83;12.55;;;;;;;5.32;100.00;94468.31;5040203;28;20043;-69
2022/04/20 12:44:35;;;;;;;14.48;9.07;;;;;;;5.23;100.00;94459.22;5036388;28;20458;-69
2022/04/20 12:47:11;;;;;;;16.27;10.55;;;;;;;5.44;100.00;94501.22;5036890;28;20049;-69
2022/04/20 12:49:39;;;;;;;11.80;7.88;;;;;;;5.41;100.00;94507.59;5046849;28;20049;-69
2022/04/20 12:52:12;;;;;;;12.07;7.85;;;;;;;5.47;100.00;94527.44;5028737;28;20049;-70